Time;durP1;ratioP1;P1;durP2;ratioP2;P2;SDS_P1;SDS_P2;PMS_P1;PMS_P2;Temp;Humidity;BMP_temperature;BMP_pressure;BME280_temperature;BME280_humidity;BME280_pressure;Samples;Min_cycle;Max_cycle;Signal;HPM_P1;HPM_P2
2022/08/04 00:00:40;;;;;;;2.92;2.35;;;;;;;;;;4431912;32;20196;-86
2022/08/04 00:03:15;;;;;;;10.52;2.67;;;;;;;;;;4431922;32;20276;-86
2022/08/04 00:06:01;;;;;;;3.78;2.90;;;;;;;;;;4432371;32;20204;-86
2022/08/04 00:08:47;;;;;;;4.22;2.50;;;;;;;;;;4431188;32;20644;-86
2022/08/04 00:11:18;;;;;;;7.00;2.33;;;;;;;;;;4434988;32;20287;-86
2022/08/04 00:13:51;;;;;;;4.95;2.08;;;;;;;;;;4432419;32;20353;-87
2022/08/04 00:16:17;;;;;;;3.33;2.92;;;;;;;;;;4432832;32;20282;-87
2022/08/04 00:19:02;;;;;;;2.78;2.22;;;;;;;;;;4446862;32;20247;-87
2022/08/04 00:21:30;;;;;;;5.97;2.80;;;;;;;;;;4447099;32;20335;-87
2022/08/04 00:23:57;;;;;;;3.70;2.17;;;;;;;;;;4439658;32;20701;-86
2022/08/04 00:26:24;;;;;;;2.37;2.15;;;;;;;;;;4431391;32;20323;-87
2022/08/04 00:28:50;;;;;;;2.80;2.28;;;;;;;;;;4431194;32;20264;-86
2022/08/04 00:31:15;;;;;;;2.72;2.50;;;;;;;;;;4417389;32;20342;-86
2022/08/04 00:33:45;;;;;;;2.12;1.92;;;;;;;;;;4431378;32;20286;-87
2022/08/04 00:36:12;;;;;;;10.32;2.90;;;;;;;;;;4417705;32;20577;-86
2022/08/04 00:38:42;;;;;;;6.10;2.92;;;;;;;;;;4430901;32;20871;-87
2022/08/04 00:41:19;;;;;;;7.62;2.30;;;;;;;;;;4431603;32;20308;-87
2022/08/04 00:44:25;;;;;;;2.72;2.53;;;;;;;;;;4431027;32;20319;-87
2022/08/04 00:47:17;;;;;;;3.05;2.22;;;;;;;;;;4431322;32;20783;-87
2022/08/04 00:49:55;;;;;;;2.62;2.12;;;;;;;;;;4430917;32;20220;-87
2022/08/04 00:52:20;;;;;;;3.95;2.55;;;;;;;;;;4422154;32;20907;-86
2022/08/04 00:55:06;;;;;;;2.75;2.30;;;;;;;;;;4446094;32;20316;-86
2022/08/04 00:58:00;;;;;;;7.05;2.47;;;;;;;;;;4446309;32;20285;-86
2022/08/04 01:00:27;;;;;;;4.10;2.75;;;;;;;;;;4446672;32;20299;-86
2022/08/04 01:03:17;;;;;;;5.32;2.08;;;;;;;;;;4446488;32;20295;-86
2022/08/04 01:05:54;;;;;;;3.28;2.15;;;;;;;;;;4446500;32;20188;-86
2022/08/04 01:08:44;;;;;;;2.70;2.37;;;;;;;;;;4445914;32;20275;-86
2022/08/04 01:11:44;;;;;;;3.67;2.42;;;;;;;;;;4443098;32;20213;-86
2022/08/04 01:14:28;;;;;;;4.05;2.67;;;;;;;;;;4416890;32;20240;-86
2022/08/04 01:17:32;;;;;;;2.97;2.33;;;;;;;;;;4430949;32;20292;-86
2022/08/04 01:20:06;;;;;;;5.18;2.30;;;;;;;;;;4435388;32;20247;-86
2022/08/04 01:22:31;;;;;;;2.83;2.28;;;;;;;;;;4446047;32;20316;-86
2022/08/04 01:24:57;;;;;;;4.70;2.50;;;;;;;;;;4446053;32;20307;-87
2022/08/04 01:27:27;;;;;;;3.53;2.60;;;;;;;;;;4445928;32;20289;-87
2022/08/04 01:29:58;;;;;;;3.47;2.85;;;;;;;;;;4446092;32;20320;-87
2022/08/04 01:32:37;;;;;;;4.03;2.28;;;;;;;;;;4446210;32;20223;-86
2022/08/04 01:35:21;;;;;;;4.07;2.95;;;;;;;;;;4445924;32;20368;-86
2022/08/04 01:38:07;;;;;;;2.47;2.28;;;;;;;;;;4431887;32;20274;-86
2022/08/04 01:40:36;;;;;;;2.45;2.25;;;;;;;;;;4446080;32;20569;-86
2022/08/04 01:43:02;;;;;;;4.25;2.40;;;;;;;;;;4446023;32;20789;-86
2022/08/04 01:45:28;;;;;;;2.70;2.20;;;;;;;;;;4446192;32;20204;-86
2022/08/04 01:47:55;;;;;;;6.82;2.20;;;;;;;;;;4446162;32;20291;-85
2022/08/04 01:50:22;;;;;;;5.12;2.67;;;;;;;;;;4432169;32;20683;-85
2022/08/04 01:52:52;;;;;;;2.70;2.50;;;;;;;;;;4437047;32;20275;-85
2022/08/04 01:55:18;;;;;;;3.12;2.83;;;;;;;;;;4430984;32;20255;-90
2022/08/04 01:57:51;;;;;;;2.85;2.45;;;;;;;;;;4431529;32;20236;-86
2022/08/04 02:00:23;;;;;;;3.40;2.80;;;;;;;;;;4416225;32;20256;-87
2022/08/04 02:02:49;;;;;;;4.43;2.92;;;;;;;;;;4416341;32;20727;-87
2022/08/04 02:05:17;;;;;;;2.92;2.53;;;;;;;;;;4431023;32;20521;-87
2022/08/04 02:07:42;;;;;;;3.92;2.50;;;;;;;;;;4418137;32;20335;-87
2022/08/04 02:10:27;;;;;;;3.83;2.35;;;;;;;;;;4433653;32;20224;-86
2022/08/04 02:13:09;;;;;;;8.43;2.67;;;;;;;;;;4446782;32;20308;-87
2022/08/04 02:15:44;;;;;;;2.75;2.53;;;;;;;;;;4447674;32;20196;-87
2022/08/04 02:18:23;;;;;;;3.12;2.60;;;;;;;;;;4419375;32;20248;-88
2022/08/04 02:20:54;;;;;;;2.78;2.50;;;;;;;;;;4433728;32;20255;-89
2022/08/04 02:23:35;;;;;;;4.65;3.12;;;;;;;;;;4432827;32;20823;-86
2022/08/04 02:26:04;;;;;;;4.60;3.00;;;;;;;;;;4419090;32;20736;-87
2022/08/04 02:28:36;;;;;;;4.43;3.08;;;;;;;;;;4433253;32;20251;-87
2022/08/04 02:31:12;;;;;;;7.43;2.75;;;;;;;;;;4433320;32;20785;-88
2022/08/04 02:33:42;;;;;;;3.78;2.20;;;;;;;;;;4419077;32;20303;-87
2022/08/04 02:36:12;;;;;;;3.22;2.78;;;;;;;;;;4433607;32;20201;-88
2022/08/04 02:38:52;;;;;;;3.62;3.15;;;;;;;;;;4418615;32;20261;-87
2022/08/04 02:41:20;;;;;;;3.00;2.67;;;;;;;;;;4433183;32;20217;-87
2022/08/04 02:43:48;;;;;;;4.85;2.65;;;;;;;;;;4432882;32;20315;-87
2022/08/04 02:46:17;;;;;;;4.00;3.35;;;;;;;;;;4432870;32;20258;-87
2022/08/04 02:48:46;;;;;;;5.70;2.50;;;;;;;;;;4432367;32;20253;-86
2022/08/04 02:51:14;;;;;;;4.97;3.05;;;;;;;;;;4432832;32;20205;-87
2022/08/04 02:53:42;;;;;;;5.45;3.05;;;;;;;;;;4446552;32;20225;-87
2022/08/04 02:56:10;;;;;;;7.12;2.60;;;;;;;;;;4447924;32;20272;-87
2022/08/04 02:58:36;;;;;;;7.18;2.90;;;;;;;;;;4447916;32;20367;-86
2022/08/04 03:01:03;;;;;;;10.88;3.00;;;;;;;;;;4448307;32;20216;-86
2022/08/04 03:03:47;;;;;;;4.18;2.47;;;;;;;;;;4447808;32;20249;-86
2022/08/04 03:06:46;;;;;;;5.60;2.95;;;;;;;;;;4448268;32;20222;-86
2022/08/04 03:09:29;;;;;;;3.30;2.80;;;;;;;;;;4446979;32;20248;-86
2022/08/04 03:12:33;;;;;;;4.85;3.10;;;;;;;;;;4440107;32;20233;-86
2022/08/04 03:15:13;;;;;;;5.78;2.83;;;;;;;;;;4431589;32;20244;-86
2022/08/04 03:18:05;;;;;;;3.42;2.85;;;;;;;;;;4417849;32;20283;-86
2022/08/04 03:20:53;;;;;;;7.95;2.65;;;;;;;;;;4418378;32;20228;-86
2022/08/04 03:23:39;;;;;;;4.68;3.15;;;;;;;;;;4432302;32;20303;-86
2022/08/04 03:26:10;;;;;;;4.60;2.95;;;;;;;;;;4433659;32;20239;-86
2022/08/04 03:29:13;;;;;;;15.07;3.33;;;;;;;;;;4432964;32;20322;-86
2022/08/04 03:31:54;;;;;;;3.55;2.70;;;;;;;;;;4419387;32;20709;-86
2022/08/04 03:34:26;;;;;;;8.68;3.08;;;;;;;;;;4418937;32;20367;-86
2022/08/04 03:37:10;;;;;;;5.50;3.25;;;;;;;;;;4432894;32;20240;-88
2022/08/04 03:40:13;;;;;;;10.27;4.28;;;;;;;;;;4432964;32;20382;-88
2022/08/04 03:42:50;;;;;;;7.28;3.83;;;;;;;;;;4432589;32;20224;-85
2022/08/04 03:45:52;;;;;;;7.93;4.25;;;;;;;;;;4431729;32;20296;-84
2022/08/04 03:48:58;;;;;;;5.80;3.55;;;;;;;;;;4418242;32;20355;-85
2022/08/04 03:54:47;;;;;;;9.23;3.92;;;;;;;;;;4432423;32;20322;-85
2022/08/04 03:57:30;;;;;;;8.48;3.85;;;;;;;;;;4431969;32;20202;-85
2022/08/04 04:00:16;;;;;;;6.12;3.65;;;;;;;;;;4431921;32;20319;-85
2022/08/04 04:03:06;;;;;;;8.43;3.35;;;;;;;;;;4432072;32;20267;-85
2022/08/04 04:05:53;;;;;;;6.00;3.47;;;;;;;;;;4431772;32;20213;-85
2022/08/04 04:08:56;;;;;;;5.03;3.15;;;;;;;;;;4431150;32;20394;-85
2022/08/04 04:11:21;;;;;;;7.43;4.22;;;;;;;;;;4424304;32;20645;-85
2022/08/04 04:14:11;;;;;;;4.78;3.42;;;;;;;;;;4432315;32;20256;-85
2022/08/04 04:16:59;;;;;;;5.10;3.55;;;;;;;;;;4432699;32;20255;-85
2022/08/04 04:19:43;;;;;;;6.10;3.72;;;;;;;;;;4446558;32;20246;-86
2022/08/04 04:22:21;;;;;;;6.20;3.72;;;;;;;;;;4446525;32;20386;-87
2022/08/04 04:25:01;;;;;;;7.57;3.55;;;;;;;;;;4446677;32;20243;-87
2022/08/04 04:27:50;;;;;;;5.53;3.72;;;;;;;;;;4442619;32;20243;-86
2022/08/04 04:30:35;;;;;;;6.07;4.07;;;;;;;;;;4430474;32;20299;-86
2022/08/04 04:33:17;;;;;;;14.87;5.12;;;;;;;;;;4431068;32;20348;-87
2022/08/04 04:35:57;;;;;;;7.20;5.12;;;;;;;;;;4431256;32;20799;-87
2022/08/04 04:38:50;;;;;;;5.87;4.20;;;;;;;;;;4431148;32;20237;-88
2022/08/04 04:41:51;;;;;;;7.40;3.97;;;;;;;;;;4417123;32;20392;-85
2022/08/04 04:44:22;;;;;;;9.13;3.72;;;;;;;;;;4355050;32;21095;-86
2022/08/04 04:47:05;;;;;;;5.07;4.05;;;;;;;;;;4419749;32;20220;-86
2022/08/04 04:49:43;;;;;;;8.27;4.12;;;;;;;;;;4416719;32;20236;-86
2022/08/04 04:52:20;;;;;;;7.78;4.28;;;;;;;;;;4435198;32;20200;-86
2022/08/04 04:55:01;;;;;;;3.95;3.55;;;;;;;;;;4446257;32;20331;-86
2022/08/04 04:57:29;;;;;;;5.87;3.78;;;;;;;;;;4446547;32;20239;-86
2022/08/04 04:59:58;;;;;;;4.72;3.37;;;;;;;;;;4446232;32;20794;-87
2022/08/04 05:02:32;;;;;;;5.82;3.55;;;;;;;;;;4446613;32;20260;-91
2022/08/04 05:05:26;;;;;;;6.10;3.97;;;;;;;;;;4446511;32;20238;-82
2022/08/04 05:08:13;;;;;;;9.32;4.32;;;;;;;;;;4446033;32;20238;-84
2022/08/04 05:11:08;;;;;;;8.07;3.72;;;;;;;;;;4445437;32;20548;-82
2022/08/04 05:13:47;;;;;;;9.43;3.80;;;;;;;;;;4429383;32;20615;-84
2022/08/04 05:16:23;;;;;;;9.48;4.70;;;;;;;;;;4429700;32;20322;-85
2022/08/04 05:19:08;;;;;;;13.18;6.35;;;;;;;;;;4433660;32;20377;-83
2022/08/04 05:21:41;;;;;;;25.42;6.70;;;;;;;;;;4444600;32;20235;-87
2022/08/04 05:24:09;;;;;;;12.40;5.18;;;;;;;;;;4445026;32;20272;-87
2022/08/04 05:26:40;;;;;;;8.23;5.03;;;;;;;;;;4445784;32;20734;-83
2022/08/04 05:29:10;;;;;;;16.87;5.60;;;;;;;;;;4446988;32;20303;-85
2022/08/04 05:31:41;;;;;;;12.23;6.05;;;;;;;;;;4445934;32;20284;-83
2022/08/04 05:34:48;;;;;;;8.25;4.70;;;;;;;;;;4446473;32;20225;-86
2022/08/04 05:37:19;;;;;;;4.78;4.03;;;;;;;;;;4437771;32;20754;-85
2022/08/04 05:39:48;;;;;;;17.45;4.80;;;;;;;;;;4445959;32;20288;-87
2022/08/04 05:42:14;;;;;;;14.48;4.30;;;;;;;;;;4449361;32;20732;-83
2022/08/04 05:44:41;;;;;;;10.30;3.65;;;;;;;;;;4448928;32;20410;-85
2022/08/04 05:47:10;;;;;;;9.13;3.83;;;;;;;;;;4448825;32;20248;-88
2022/08/04 05:49:39;;;;;;;5.72;3.83;;;;;;;;;;4449403;32;20357;-90
2022/08/04 05:52:08;;;;;;;7.87;3.60;;;;;;;;;;4444880;32;20237;-89
2022/08/04 05:54:35;;;;;;;10.52;4.30;;;;;;;;;;4433580;32;20261;-89
2022/08/04 05:57:03;;;;;;;10.82;3.65;;;;;;;;;;4419331;32;20275;-89
2022/08/04 05:59:30;;;;;;;3.72;3.33;;;;;;;;;;4433106;32;20274;-86
2022/08/04 06:01:58;;;;;;;6.05;2.97;;;;;;;;;;4419415;32;20358;-84
2022/08/04 06:04:30;;;;;;;10.18;3.70;;;;;;;;;;4434155;32;20253;-83
2022/08/04 06:06:55;;;;;;;5.07;3.42;;;;;;;;;;4419440;32;20304;-82
2022/08/04 06:09:21;;;;;;;6.53;2.70;;;;;;;;;;4432821;32;20332;-82
2022/08/04 06:11:49;;;;;;;7.05;3.50;;;;;;;;;;4432882;32;20327;-82
2022/08/04 06:14:15;;;;;;;4.30;3.17;;;;;;;;;;4432985;32;20253;-82
2022/08/04 06:16:44;;;;;;;4.50;3.50;;;;;;;;;;4448060;32;20220;-82
2022/08/04 06:19:12;;;;;;;9.32;4.95;;;;;;;;;;4440815;32;20324;-82
2022/08/04 06:21:41;;;;;;;8.90;4.12;;;;;;;;;;4431307;32;20702;-82
2022/08/04 06:24:11;;;;;;;4.57;3.58;;;;;;;;;;4432521;32;20241;-82
2022/08/04 06:26:39;;;;;;;4.85;3.58;;;;;;;;;;4431915;32;20208;-83
2022/08/04 06:29:15;;;;;;;5.62;3.05;;;;;;;;;;4431620;32;20256;-84
2022/08/04 06:31:42;;;;;;;7.87;3.30;;;;;;;;;;4432095;32;20234;-84
2022/08/04 06:34:10;;;;;;;3.87;2.83;;;;;;;;;;4425187;32;20796;-83
2022/08/04 06:36:37;;;;;;;6.30;2.92;;;;;;;;;;4441961;32;20291;-84
2022/08/04 06:39:04;;;;;;;4.00;3.08;;;;;;;;;;4448015;32;20698;-84
2022/08/04 06:41:30;;;;;;;4.05;3.15;;;;;;;;;;4420206;32;20283;-83
2022/08/04 06:44:04;;;;;;;3.40;2.92;;;;;;;;;;4418355;32;20392;-84
2022/08/04 06:46:31;;;;;;;3.08;2.78;;;;;;;;;;4432758;32;20225;-83
2022/08/04 06:48:57;;;;;;;12.35;3.25;;;;;;;;;;4438569;32;20232;-83
2022/08/04 06:51:23;;;;;;;3.42;2.97;;;;;;;;;;4447980;32;20586;-83
2022/08/04 06:53:50;;;;;;;3.58;3.10;;;;;;;;;;4447296;32;20236;-84
2022/08/04 06:56:16;;;;;;;8.75;3.33;;;;;;;;;;4433861;32;20323;-84
2022/08/04 06:58:47;;;;;;;6.72;3.50;;;;;;;;;;4447988;32;20374;-84
2022/08/04 07:01:15;;;;;;;4.40;3.00;;;;;;;;;;4448162;32;20869;-84
2022/08/04 07:03:42;;;;;;;3.92;3.30;;;;;;;;;;4448032;32;20249;-84
2022/08/04 07:06:07;;;;;;;9.75;3.40;;;;;;;;;;4440325;32;20812;-84
2022/08/04 07:08:36;;;;;;;10.23;3.08;;;;;;;;;;4432664;32;20302;-84
2022/08/04 07:11:02;;;;;;;5.32;3.20;;;;;;;;;;4434273;32;20256;-84
2022/08/04 07:13:30;;;;;;;3.97;3.33;;;;;;;;;;4447809;32;20860;-84
2022/08/04 07:15:58;;;;;;;4.97;3.58;;;;;;;;;;4447681;32;20309;-84
2022/08/04 07:18:23;;;;;;;3.80;3.35;;;;;;;;;;4447437;32;20675;-84
2022/08/04 07:20:49;;;;;;;6.03;3.45;;;;;;;;;;4447798;32;20212;-84
2022/08/04 07:23:21;;;;;;;4.25;3.65;;;;;;;;;;4447768;32;20285;-84
2022/08/04 07:25:52;;;;;;;7.50;3.30;;;;;;;;;;4434564;32;20252;-84
2022/08/04 07:28:18;;;;;;;5.03;3.40;;;;;;;;;;4447586;32;20208;-84
2022/08/04 07:30:45;;;;;;;3.92;3.53;;;;;;;;;;4447824;32;20205;-83
2022/08/04 07:33:11;;;;;;;5.22;3.87;;;;;;;;;;4442045;32;20253;-81
2022/08/04 07:35:38;;;;;;;3.95;3.12;;;;;;;;;;4431517;32;20197;-83
2022/08/04 07:38:04;;;;;;;4.85;4.05;;;;;;;;;;4433180;32;20205;-83
2022/08/04 07:40:31;;;;;;;5.00;3.58;;;;;;;;;;4427777;32;20263;-85
2022/08/04 07:42:57;;;;;;;5.10;4.07;;;;;;;;;;4447854;32;20224;-84
2022/08/04 07:45:24;;;;;;;6.32;4.10;;;;;;;;;;4447689;32;20241;-90
2022/08/04 07:47:50;;;;;;;5.35;4.12;;;;;;;;;;4447823;32;20230;-89
2022/08/04 07:50:16;;;;;;;3.92;3.53;;;;;;;;;;4448748;32;20331;-91
2022/08/04 07:52:44;;;;;;;5.18;3.42;;;;;;;;;;4449525;32;20259;-92
2022/08/04 07:55:10;;;;;;;4.68;3.90;;;;;;;;;;4448214;32;20248;-87
2022/08/04 07:57:36;;;;;;;4.57;3.35;;;;;;;;;;4427286;32;20402;-83
2022/08/04 08:00:04;;;;;;;5.10;3.87;;;;;;;;;;4432475;32;20229;-83
2022/08/04 08:02:32;;;;;;;5.30;3.42;;;;;;;;;;4429984;32;20609;-84
2022/08/04 08:04:58;;;;;;;6.37;3.28;;;;;;;;;;4431961;32;20251;-82
2022/08/04 08:07:23;;;;;;;7.93;3.78;;;;;;;;;;4440251;32;20224;-83
2022/08/04 08:09:49;;;;;;;5.43;3.55;;;;;;;;;;4431578;32;20226;-83
2022/08/04 08:12:15;;;;;;;5.85;3.75;;;;;;;;;;4439193;32;20233;-82
2022/08/04 08:14:42;;;;;;;3.72;3.33;;;;;;;;;;4441182;32;20691;-84
2022/08/04 08:17:08;;;;;;;4.15;3.50;;;;;;;;;;4416670;32;20229;-85
2022/08/04 08:19:34;;;;;;;7.12;3.50;;;;;;;;;;4421688;32;20228;-84
2022/08/04 08:22:00;;;;;;;6.07;4.03;;;;;;;;;;4439740;32;20277;-82
2022/08/04 08:24:28;;;;;;;5.22;3.37;;;;;;;;;;4430014;32;20236;-82
2022/08/04 08:26:55;;;;;;;5.10;3.47;;;;;;;;;;4437597;32;20215;-84
2022/08/04 08:29:22;;;;;;;5.50;3.12;;;;;;;;;;4428910;32;20259;-83
2022/08/04 08:31:48;;;;;;;5.70;3.22;;;;;;;;;;4430808;32;20241;-85
2022/08/04 08:34:14;;;;;;;4.65;2.97;;;;;;;;;;4431708;32;20885;-84
2022/08/04 08:37:12;;;;;;;8.88;3.50;;;;;;;;;;4435659;32;20203;-84
2022/08/04 08:39:41;;;;;;;14.38;3.22;;;;;;;;;;4415202;32;20302;-84
2022/08/04 08:42:15;;;;;;;5.32;3.67;;;;;;;;;;4446770;32;20201;-84
2022/08/04 08:44:59;;;;;;;3.50;3.20;;;;;;;;;;4446600;32;20224;-84
2022/08/04 08:47:51;;;;;;;5.68;3.17;;;;;;;;;;4446443;32;20602;-84
2022/08/04 08:50:19;;;;;;;5.18;3.72;;;;;;;;;;4446461;32;20629;-82
2022/08/04 08:52:50;;;;;;;8.02;2.95;;;;;;;;;;4446903;32;20213;-84
2022/08/04 08:55:45;;;;;;;14.27;3.72;;;;;;;;;;4446177;32;20208;-84
2022/08/04 08:58:55;;;;;;;4.32;3.25;;;;;;;;;;4446625;32;20224;-84
2022/08/04 09:01:41;;;;;;;3.55;3.00;;;;;;;;;;4402511;32;20236;-81
2022/08/04 09:04:15;;;;;;;5.62;3.65;;;;;;;;;;4444079;32;20330;-82
2022/08/04 09:07:00;;;;;;;9.05;3.33;;;;;;;;;;4445303;32;20216;-83
2022/08/04 09:09:50;;;;;;;13.43;4.10;;;;;;;;;;4444358;32;20402;-83
2022/08/04 09:12:32;;;;;;;5.35;3.60;;;;;;;;;;4444508;32;20303;-83
2022/08/04 09:15:02;;;;;;;16.25;5.72;;;;;;;;;;4443800;32;20235;-82
2022/08/04 09:17:46;;;;;;;3.70;2.75;;;;;;;;;;4430418;32;20263;-82
2022/08/04 09:20:26;;;;;;;6.12;3.83;;;;;;;;;;4445122;32;20215;-82
2022/08/04 09:23:32;;;;;;;3.15;2.78;;;;;;;;;;4445712;32;20287;-82
2022/08/04 09:26:18;;;;;;;3.50;2.50;;;;;;;;;;4409989;32;20684;-82
2022/08/04 09:29:02;;;;;;;5.70;2.65;;;;;;;;;;4435918;32;20376;-81
2022/08/04 09:31:39;;;;;;;5.10;2.83;;;;;;;;;;4430291;32;20626;-81
2022/08/04 09:34:34;;;;;;;5.07;2.95;;;;;;;;;;4431198;32;20714;-82
2022/08/04 09:37:41;;;;;;;3.15;2.15;;;;;;;;;;4446349;32;20576;-82
2022/08/04 09:40:19;;;;;;;7.30;2.62;;;;;;;;;;4445344;32;20258;-82
2022/08/04 09:42:54;;;;;;;4.87;2.72;;;;;;;;;;4445895;32;20272;-84
2022/08/04 09:45:28;;;;;;;4.53;2.40;;;;;;;;;;4446542;32;20212;-87
2022/08/04 09:48:00;;;;;;;8.40;2.53;;;;;;;;;;4446229;32;20263;-84
2022/08/04 09:50:36;;;;;;;2.28;1.92;;;;;;;;;;4445927;32;20283;-83
2022/08/04 09:53:36;;;;;;;2.83;2.53;;;;;;;;;;4446031;32;20239;-83
2022/08/04 09:56:01;;;;;;;8.23;2.30;;;;;;;;;;4446900;32;20209;-85
2022/08/04 09:58:50;;;;;;;2.83;2.15;;;;;;;;;;4446168;32;20271;-86
2022/08/04 10:01:18;;;;;;;4.07;2.15;;;;;;;;;;4433214;32;20495;-84
2022/08/04 10:03:59;;;;;;;5.53;2.28;;;;;;;;;;4430713;32;20229;-84
2022/08/04 10:07:04;;;;;;;6.43;1.98;;;;;;;;;;4430621;32;20227;-85
2022/08/04 10:09:49;;;;;;;3.12;2.17;;;;;;;;;;4430182;32;20275;-84
2022/08/04 10:12:23;;;;;;;2.58;2.30;;;;;;;;;;4439644;32;20735;-82
2022/08/04 10:15:01;;;;;;;2.80;2.28;;;;;;;;;;4431620;32;20369;-82
2022/08/04 10:17:38;;;;;;;10.80;3.05;;;;;;;;;;4446305;32;20250;-84
2022/08/04 10:20:19;;;;;;;2.85;2.10;;;;;;;;;;4445265;32;20251;-83
2022/08/04 10:23:08;;;;;;;2.72;1.85;;;;;;;;;;4446910;32;20225;-82
2022/08/04 10:25:48;;;;;;;3.12;2.20;;;;;;;;;;4445886;32;20246;-85
2022/08/04 10:28:19;;;;;;;2.33;2.12;;;;;;;;;;4440021;32;20354;-82
2022/08/04 10:30:50;;;;;;;4.85;2.42;;;;;;;;;;4433210;32;20580;-84
2022/08/04 10:33:40;;;;;;;4.07;1.83;;;;;;;;;;4433215;32;20738;-83
2022/08/04 10:36:08;;;;;;;8.80;2.30;;;;;;;;;;4433553;32;20307;-82
2022/08/04 10:39:12;;;;;;;2.20;1.95;;;;;;;;;;4432842;32;20228;-85
2022/08/04 10:42:06;;;;;;;7.40;2.10;;;;;;;;;;4432863;32;20236;-84
2022/08/04 10:44:46;;;;;;;4.78;1.60;;;;;;;;;;4432627;32;20225;-84
2022/08/04 10:47:22;;;;;;;3.40;2.00;;;;;;;;;;4432906;32;20213;-85
2022/08/04 10:49:55;;;;;;;1.70;1.60;;;;;;;;;;4432573;32;20201;-84
2022/08/04 10:52:56;;;;;;;3.00;1.73;;;;;;;;;;4433187;32;20236;-84
2022/08/04 10:55:41;;;;;;;11.07;2.15;;;;;;;;;;4424450;32;20311;-84
2022/08/04 10:58:14;;;;;;;2.08;1.40;;;;;;;;;;4432368;32;20299;-83
2022/08/04 11:00:41;;;;;;;3.75;1.83;;;;;;;;;;4432854;32;20197;-82
2022/08/04 11:03:20;;;;;;;6.12;2.22;;;;;;;;;;4431968;32;20300;-83
2022/08/04 11:05:57;;;;;;;4.05;1.95;;;;;;;;;;4432262;32;20369;-82
2022/08/04 11:08:34;;;;;;;4.03;2.37;;;;;;;;;;4405884;32;20232;-82
2022/08/04 11:11:09;;;;;;;6.87;2.67;;;;;;;;;;4420034;32;20258;-83
2022/08/04 11:13:46;;;;;;;5.22;2.00;;;;;;;;;;4448084;32;20219;-84
2022/08/04 11:16:38;;;;;;;8.20;2.33;;;;;;;;;;4433438;32;20279;-82
2022/08/04 11:19:18;;;;;;;2.47;2.00;;;;;;;;;;4438404;32;20267;-80
2022/08/04 11:21:54;;;;;;;2.47;1.87;;;;;;;;;;4448332;32;20212;-80
2022/08/04 11:24:36;;;;;;;2.60;1.92;;;;;;;;;;4447840;32;20253;-79
2022/08/04 11:27:10;;;;;;;6.80;1.70;;;;;;;;;;4434062;32;20220;-80
2022/08/04 11:30:03;;;;;;;2.40;2.00;;;;;;;;;;4432373;32;20663;-81
2022/08/04 11:32:51;;;;;;;4.18;1.80;;;;;;;;;;4432549;32;20216;-81
2022/08/04 11:35:29;;;;;;;6.07;1.98;;;;;;;;;;4431935;32;20248;-82
2022/08/04 11:38:07;;;;;;;3.20;2.20;;;;;;;;;;4432200;32;20193;-80
2022/08/04 11:40:41;;;;;;;2.85;1.98;;;;;;;;;;4431918;32;20224;-81
2022/08/04 11:43:20;;;;;;;5.78;1.58;;;;;;;;;;4431848;32;20614;-81
2022/08/04 11:45:59;;;;;;;2.85;2.30;;;;;;;;;;4431602;32;20304;-81
2022/08/04 11:48:37;;;;;;;2.85;2.05;;;;;;;;;;4431401;32;20608;-81
2022/08/04 11:51:05;;;;;;;6.30;2.25;;;;;;;;;;4431685;32;20645;-80
2022/08/04 11:53:33;;;;;;;3.72;2.33;;;;;;;;;;4431205;32;20252;-81
2022/08/04 11:56:06;;;;;;;3.55;1.98;;;;;;;;;;4431356;32;20217;-81
2022/08/04 11:58:40;;;;;;;3.33;2.15;;;;;;;;;;4431221;32;20220;-81
2022/08/04 12:01:22;;;;;;;2.25;2.03;;;;;;;;;;4431594;32;20259;-85
2022/08/04 12:04:25;;;;;;;5.57;2.67;;;;;;;;;;4431535;32;20205;-85
2022/08/04 12:06:56;;;;;;;2.75;2.17;;;;;;;;;;4417700;32;20277;-86
2022/08/04 12:09:35;;;;;;;3.22;1.87;;;;;;;;;;4431366;32;20263;-85
2022/08/04 12:12:54;;;;;;;2.67;1.83;;;;;;;;;;4417178;32;20236;-85
2022/08/04 12:15:30;;;;;;;5.90;2.20;;;;;;;;;;4431693;32;20597;-87
2022/08/04 12:18:04;;;;;;;5.57;2.12;;;;;;;;;;4431901;32;20680;-87
2022/08/04 12:20:38;;;;;;;5.07;2.40;;;;;;;;;;4431918;32;20760;-87
2022/08/04 12:23:06;;;;;;;2.25;2.05;;;;;;;;;;4432092;32;20259;-86
2022/08/04 12:25:39;;;;;;;3.55;2.62;;;;;;;;;;4431581;32;20229;-84
2022/08/04 12:28:11;;;;;;;3.75;2.30;;;;;;;;;;4422849;32;20256;-86
2022/08/04 12:30:43;;;;;;;10.18;2.12;;;;;;;;;;4446872;32;20275;-86
2022/08/04 12:33:45;;;;;;;3.90;2.45;;;;;;;;;;4447017;32;20296;-86
2022/08/04 12:36:54;;;;;;;3.47;2.00;;;;;;;;;;4443194;32;20235;-87
2022/08/04 12:39:21;;;;;;;3.08;2.50;;;;;;;;;;4446670;32;20343;-86
2022/08/04 12:42:05;;;;;;;6.93;1.85;;;;;;;;;;4432518;32;20334;-87
2022/08/04 12:44:36;;;;;;;2.33;1.90;;;;;;;;;;4446821;32;20247;-87
2022/08/04 12:47:06;;;;;;;5.43;1.85;;;;;;;;;;4432632;32;20604;-83
2022/08/04 12:49:34;;;;;;;5.07;2.33;;;;;;;;;;4436523;32;20631;-88
2022/08/04 12:52:10;;;;;;;5.18;1.98;;;;;;;;;;4417489;32;20737;-89
2022/08/04 12:54:39;;;;;;;3.47;2.22;;;;;;;;;;4431555;32;20299;-88
2022/08/04 12:57:08;;;;;;;5.15;2.62;;;;;;;;;;4431262;32;20251;-86
2022/08/04 12:59:43;;;;;;;2.47;2.22;;;;;;;;;;4430738;32;20259;-85
2022/08/04 13:02:16;;;;;;;3.70;2.58;;;;;;;;;;4431025;32;20433;-86
2022/08/04 13:04:44;;;;;;;7.40;2.30;;;;;;;;;;4430943;32;20293;-89
2022/08/04 13:07:17;;;;;;;2.80;2.15;;;;;;;;;;4417389;32;20232;-87
2022/08/04 13:09:45;;;;;;;2.17;1.92;;;;;;;;;;4404363;32;20233;-89
2022/08/04 13:12:17;;;;;;;4.70;2.17;;;;;;;;;;4425959;32;20224;-89
2022/08/04 13:14:47;;;;;;;2.33;2.10;;;;;;;;;;4446544;32;20573;-86
2022/08/04 13:17:12;;;;;;;2.60;2.28;;;;;;;;;;4434153;32;20240;-88
2022/08/04 13:19:45;;;;;;;5.35;2.28;;;;;;;;;;4446727;32;20236;-84
2022/08/04 13:22:11;;;;;;;3.17;2.30;;;;;;;;;;4448147;32;20260;-86
2022/08/04 13:24:38;;;;;;;3.12;1.80;;;;;;;;;;4447974;32;20308;-86
2022/08/04 13:27:09;;;;;;;2.40;2.15;;;;;;;;;;4446867;32;20239;-84
2022/08/04 13:29:42;;;;;;;4.90;2.78;;;;;;;;;;4430844;32;20256;-85
2022/08/04 13:32:09;;;;;;;5.22;2.10;;;;;;;;;;4430717;32;20201;-86
2022/08/04 13:34:38;;;;;;;3.58;2.17;;;;;;;;;;4430681;32;20255;-84
2022/08/04 13:37:06;;;;;;;6.25;2.42;;;;;;;;;;4431317;32;20205;-85
2022/08/04 13:39:34;;;;;;;2.78;2.20;;;;;;;;;;4433508;32;20232;-83
2022/08/04 13:42:03;;;;;;;2.67;2.47;;;;;;;;;;4435114;32;20216;-83
2022/08/04 13:44:32;;;;;;;4.80;2.20;;;;;;;;;;4435086;32;20251;-85
2022/08/04 13:47:03;;;;;;;6.05;2.50;;;;;;;;;;4435825;32;20232;-85
2022/08/04 13:49:29;;;;;;;3.50;2.80;;;;;;;;;;4433042;32;20220;-85
2022/08/04 13:51:58;;;;;;;4.93;2.05;;;;;;;;;;4419708;32;20693;-86
2022/08/04 13:54:44;;;;;;;3.30;2.45;;;;;;;;;;4422593;32;20799;-88
2022/08/04 13:57:11;;;;;;;2.92;1.83;;;;;;;;;;4436078;32;20216;-86
2022/08/04 13:59:38;;;;;;;3.30;2.20;;;;;;;;;;4432496;32;20278;-86
2022/08/04 14:02:08;;;;;;;2.85;2.25;;;;;;;;;;4434074;32;20231;-85
2022/08/04 14:04:39;;;;;;;3.55;2.65;;;;;;;;;;4433494;32;20236;-82
2022/08/04 14:07:18;;;;;;;2.92;2.20;;;;;;;;;;4433920;32;20205;-79
2022/08/04 14:09:43;;;;;;;4.22;2.22;;;;;;;;;;4433191;32;20292;-79
2022/08/04 14:12:12;;;;;;;4.22;2.37;;;;;;;;;;4420263;32;20253;-80
2022/08/04 14:15:04;;;;;;;2.72;2.47;;;;;;;;;;4433147;32;20251;-81
2022/08/04 14:17:30;;;;;;;2.45;2.10;;;;;;;;;;4429846;32;20629;-82
2022/08/04 14:19:57;;;;;;;2.55;2.30;;;;;;;;;;4445372;32;20322;-81
2022/08/04 14:22:25;;;;;;;6.72;2.53;;;;;;;;;;4449130;32;20545;-81
2022/08/04 14:25:02;;;;;;;3.22;2.33;;;;;;;;;;4434587;32;20696;-80
2022/08/04 14:27:29;;;;;;;5.85;2.10;;;;;;;;;;4446422;32;20192;-83
2022/08/04 14:29:55;;;;;;;4.15;2.50;;;;;;;;;;4432724;32;20233;-82
2022/08/04 14:32:21;;;;;;;5.62;2.33;;;;;;;;;;4432654;32;20240;-82
2022/08/04 14:34:46;;;;;;;5.22;2.33;;;;;;;;;;4419202;32;20279;-81
2022/08/04 14:37:16;;;;;;;4.07;2.50;;;;;;;;;;4433121;32;20280;-81
2022/08/04 14:39:47;;;;;;;10.68;2.45;;;;;;;;;;4432649;32;20347;-81
2022/08/04 14:42:14;;;;;;;3.70;2.20;;;;;;;;;;4442641;32;20204;-81
2022/08/04 14:45:06;;;;;;;4.87;2.28;;;;;;;;;;4447725;32;20322;-80
2022/08/04 14:47:41;;;;;;;2.83;2.15;;;;;;;;;;4444485;32;21001;-80
2022/08/04 14:50:09;;;;;;;2.83;2.15;;;;;;;;;;4433760;32;20319;-81
2022/08/04 14:52:37;;;;;;;2.92;2.30;;;;;;;;;;4433955;32;20278;-81
2022/08/04 14:55:22;;;;;;;2.65;2.40;;;;;;;;;;4447814;32;20727;-81
2022/08/04 14:57:51;;;;;;;4.68;2.65;;;;;;;;;;4447494;32;20233;-81
2022/08/04 15:00:25;;;;;;;5.65;2.12;;;;;;;;;;4433668;32;20252;-81
2022/08/04 15:02:51;;;;;;;2.60;1.90;;;;;;;;;;4447405;32;20281;-81
2022/08/04 15:05:19;;;;;;;3.40;2.45;;;;;;;;;;4447954;32;20208;-81
2022/08/04 15:07:45;;;;;;;5.65;2.00;;;;;;;;;;4447462;32;20270;-81
2022/08/04 15:10:13;;;;;;;4.25;2.33;;;;;;;;;;4447957;32;20533;-81
2022/08/04 15:12:39;;;;;;;2.70;2.15;;;;;;;;;;4435255;32;20239;-83
2022/08/04 15:15:05;;;;;;;9.25;2.78;;;;;;;;;;4417609;32;20323;-81
2022/08/04 15:17:31;;;;;;;4.43;3.05;;;;;;;;;;4431806;32;20232;-83
2022/08/04 15:19:57;;;;;;;2.42;2.03;;;;;;;;;;4443964;32;20272;-80
2022/08/04 15:22:23;;;;;;;7.68;2.80;;;;;;;;;;4447449;32;20224;-80
2022/08/04 15:24:48;;;;;;;3.30;2.80;;;;;;;;;;4447564;32;20254;-80
2022/08/04 15:27:15;;;;;;;5.30;2.45;;;;;;;;;;4447364;32;20200;-80
2022/08/04 15:29:46;;;;;;;6.12;2.45;;;;;;;;;;4446631;32;20228;-80
2022/08/04 15:32:15;;;;;;;6.87;2.90;;;;;;;;;;4432547;32;20244;-80
2022/08/04 15:34:48;;;;;;;5.12;2.50;;;;;;;;;;4447318;32;20530;-80